Flinterbirka — PHFQ — position and weather

sailwx.info

Track history (hours):
 
Tides and Currents Weather Stations Pressure Air Temp Water Temp Dewpoint Dewpoint Depression Visibility Wind Speed Wind Dir Waves Ship Positions

Flinterbirka

Last reported at 2015-Aug-31 23:33 UTC. Time now 2015-Aug-31 23:49 UTC.
Position N 51°30' W 002°43'.

Length 83 m; draft 5.6 m.

Type: Ship. MMSI: 246525000.

Date/timePositionNaut miles runAvg speedWind from/ knotsBaromVisibWave heightAir tempDewpointWater temp
2015-Aug-31 23:33N 51°30' W 002°43'0 0.0
2015-Aug-31 22:33N 51°30' W 002°43'0 0.0
2015-Aug-31 21:33N 51°30' W 002°43'0 0.0
2015-Aug-31 20:32N 51°30' W 002°43'0 0.0
2015-Aug-31 19:32N 51°30' W 002°43'0 0.0
2015-Aug-31 18:31N 51°30' W 002°43'0 0.0
2015-Aug-31 17:31N 51°30' W 002°43'0 0.0
2015-Aug-31 16:33N 51°30' W 002°43'0 0.0
2015-Aug-31 15:33N 51°30' W 002°43'0 0.0
2015-Aug-31 14:33N 51°30' W 002°43'0 0.0
2015-Aug-31 13:32N 51°30' W 002°43'0 0.0
2015-Aug-31 12:32N 51°30' W 002°43'0 0.0
2015-Aug-31 11:31N 51°30' W 002°43'0 0.0
2015-Aug-31 10:31N 51°30' W 002°43'0 0.0
2015-Aug-31 09:33N 51°30' W 002°43'0 0.0
2015-Aug-31 08:33N 51°30' W 002°43'0 0.0
2015-Aug-31 07:33N 51°30' W 002°43'0 0.0
2015-Aug-31 06:32N 51°30' W 002°43'0 0.0
2015-Aug-31 05:32N 51°30' W 002°43'0 0.0
2015-Aug-31 04:31N 51°30' W 002°43'0 0.0
2015-Aug-31 03:31N 51°30' W 002°43'0 0.0
2015-Aug-31 02:33N 51°30' W 002°43'0 0.0
2015-Aug-31 01:33N 51°30' W 002°43'0 0.0
2015-Aug-31 00:33N 51°30' W 002°43'0 0.0
2015-Aug-30 23:32N 51°30' W 002°43'0 0.0
2015-Aug-30 22:32N 51°30' W 002°43'0 0.0
2015-Aug-30 21:31N 51°30' W 002°43'0 0.0
2015-Aug-30 20:32N 51°30' W 002°43'0 0.0
2015-Aug-30 19:33N 51°30' W 002°43'0 0.5
2015-Aug-30 18:33N 51°30' W 002°44'10 9.3
2015-Aug-30 17:30N 51°27' W 002°59'101 6.3
2015-Aug-30 01:31N 50°39' W 005°21'8 8.2
2015-Aug-30 00:33N 50°34' W 005°30'8 7.6
2015-Aug-29 23:29N 50°28' W 005°39'226 7.6
2015-Aug-28 17:33N 50°35' E 000°17'10 9.8
2015-Aug-28 16:33N 50°38' E 000°32'1010.4
2015-Aug-28 15:33N 50°43' E 000°46'22 9.9
2015-Aug-28 13:20N 50°57' E 001°13'7 8.4
2015-Aug-28 12:33N 51°01' E 001°21'7 7.4
2015-Aug-28 11:33N 51°06' E 001°30'7 6.9
2015-Aug-28 10:34N 51°10' E 001°39'8 7.9
2015-Aug-28 09:34N 51°16' E 001°48'10 9.7
2015-Aug-28 08:33N 51°24' E 001°57'1111.2
2015-Aug-28 07:33N 51°33' E 002°08'91 9.1
2015-Aug-27 21:33N 52°31' E 004°01'9 8.7
2015-Aug-27 20:34N 52°31' E 004°15'9 8.5
2015-Aug-27 19:33N 52°29' E 004°29'5 4.6
2015-Aug-27 18:33N 52°28' E 004°36'8 7.6
2015-Aug-27 17:33N 52°25' E 004°48'1 1.2
2015-Aug-27 16:33N 52°25' E 004°49'0 0.0
2015-Aug-27 15:33N 52°25' E 004°49'0 0.0
2015-Aug-27 14:33N 52°25' E 004°49'0 0.0
2015-Aug-27 13:29N 52°25' E 004°49'0 0.0
2015-Aug-27 12:29N 52°25' E 004°49'0 0.0
2015-Aug-27 11:31N 52°25' E 004°49'0 0.0
2015-Aug-27 10:31N 52°25' E 004°49'0 0.0
2015-Aug-27 09:33N 52°25' E 004°49'0 0.0
2015-Aug-27 08:33N 52°25' E 004°49'0 0.0
2015-Aug-27 07:32N 52°25' E 004°49'0 0.0
2015-Aug-27 06:32N 52°25' E 004°49'0 0.0
2015-Aug-27 05:32N 52°25' E 004°49'0 0.0
2015-Aug-27 04:31N 52°25' E 004°49'0 0.0
2015-Aug-27 03:31N 52°25' E 004°49'1 0.7
2015-Aug-27 02:34N 52°25' E 004°49'6 5.9
2015-Aug-27 01:32N 52°28' E 004°40'0 0.0
2015-Aug-27 00:32N 52°28' E 004°40'0 0.0
2015-Aug-26 23:31N 52°28' E 004°40'0 0.0
2015-Aug-26 22:31N 52°28' E 004°40'0 0.0
2015-Aug-26 21:30N 52°28' E 004°40'0 0.0
2015-Aug-26 20:33N 52°28' E 004°40'0 0.0
2015-Aug-26 19:32N 52°28' E 004°40'0 0.0
2015-Aug-26 18:32N 52°28' E 004°40'0 0.0
2015-Aug-26 17:32N 52°28' E 004°40'0 0.0
2015-Aug-26 16:31N 52°28' E 004°40'0 0.0
2015-Aug-26 15:31N 52°28' E 004°40'0 0.0
2015-Aug-26 14:33N 52°28' E 004°40'0 0.0
2015-Aug-26 13:33N 52°28' E 004°40'0 0.0
2015-Aug-26 12:32N 52°28' E 004°40'0 0.0
2015-Aug-26 11:32N 52°28' E 004°40'0 0.0
2015-Aug-26 10:32N 52°28' E 004°40'0 0.0
2015-Aug-26 09:31N 52°28' E 004°40'0 0.0
2015-Aug-26 08:31N 52°28' E 004°40'0 0.0
2015-Aug-26 07:30N 52°28' E 004°40'0 0.0
2015-Aug-26 06:33N 52°28' E 004°40'0 0.0
2015-Aug-26 05:32N 52°28' E 004°40'0 0.0
2015-Aug-26 04:32N 52°28' E 004°40'0 0.0
2015-Aug-26 03:32N 52°28' E 004°40'0 0.0
2015-Aug-26 02:31N 52°28' E 004°40'0 0.0
2015-Aug-26 01:31N 52°28' E 004°40'0 0.0
2015-Aug-26 00:33N 52°28' E 004°40'0 0.0
2015-Aug-25 23:33N 52°28' E 004°40'0 0.0
2015-Aug-25 22:32N 52°28' E 004°40'0 0.0
2015-Aug-25 21:29N 52°28' E 004°40'0 0.0
2015-Aug-25 20:31N 52°28' E 004°40'0 0.0
2015-Aug-25 19:31N 52°28' E 004°40'0 0.0
2015-Aug-25 18:31N 52°28' E 004°40'0 0.0
2015-Aug-25 17:33N 52°28' E 004°40'0 0.0
2015-Aug-25 16:33N 52°28' E 004°40'0 0.0
2015-Aug-25 15:32N 52°28' E 004°40'0 0.0
2015-Aug-25 14:32N 52°28' E 004°40'0 0.0
2015-Aug-25 13:31N 52°28' E 004°40'0 0.0
2015-Aug-25 12:28N 52°28' E 004°40'0 0.0
2015-Aug-25 11:31N 52°28' E 004°40'0 0.0
2015-Aug-25 10:33N 52°28' E 004°40'0 0.0
2015-Aug-25 09:33N 52°28' E 004°40'0 0.0
2015-Aug-25 08:32N 52°28' E 004°40'0 0.0
2015-Aug-25 07:32N 52°28' E 004°40'0 0.0
2015-Aug-25 06:31N 52°28' E 004°40'0 0.0
2015-Aug-25 05:31N 52°28' E 004°40'0 0.0
2015-Aug-25 04:31N 52°28' E 004°40'0 0.0
2015-Aug-25 03:33N 52°28' E 004°40'0 0.0
2015-Aug-25 02:33N 52°28' E 004°40'0 0.0
2015-Aug-25 01:32N 52°28' E 004°40'0 0.0
2015-Aug-25 00:32N 52°28' E 004°40'0 0.0
2015-Aug-24 23:31N 52°28' E 004°40'0 0.0
2015-Aug-24 22:31N 52°28' E 004°40'0 0.0
2015-Aug-24 21:34N 52°28' E 004°40'0 0.0
2015-Aug-24 20:33N 52°28' E 004°40'0 0.0
2015-Aug-24 19:33N 52°28' E 004°40'0 0.0
2015-Aug-24 18:32N 52°28' E 004°40'0 0.0
2015-Aug-24 17:32N 52°28' E 004°40'0 0.0
2015-Aug-24 16:31N 52°28' E 004°40'0 0.0
2015-Aug-24 15:31N 52°28' E 004°40'0 0.0
2015-Aug-24 14:34N 52°28' E 004°40'0 0.0
2015-Aug-24 13:33N 52°28' E 004°40'0 0.0
2015-Aug-24 12:33N 52°28' E 004°40'0 0.0
2015-Aug-24 11:32N 52°28' E 004°40'0 0.0
2015-Aug-24 10:29N 52°28' E 004°40'0 0.0
2015-Aug-24 09:31N 52°28' E 004°40'0 0.0
2015-Aug-24 08:28N 52°28' E 004°40'0 0.0
2015-Aug-24 07:33N 52°28' E 004°40'0 0.0
2015-Aug-24 06:33N 52°28' E 004°40'0 0.1
2015-Aug-24 05:31N 52°28' E 004°40'0 0.0
2015-Aug-24 04:33N 52°28' E 004°40'0 0.0
2015-Aug-24 03:33N 52°28' E 004°40'0 0.0
2015-Aug-24 02:32N 52°28' E 004°40'0 0.0
2015-Aug-24 01:32N 52°28' E 004°40'0 0.0
2015-Aug-24 00:32N 52°28' E 004°40'0 0.0
2015-Aug-23 23:31N 52°28' E 004°40'0 0.0
2015-Aug-23 22:31N 52°28' E 004°40'0 0.0
2015-Aug-23 21:33N 52°28' E 004°40'0 0.0
2015-Aug-23 20:33N 52°28' E 004°40'0 0.0
2015-Aug-23 19:32N 52°28' E 004°40'0 0.0
2015-Aug-23 18:32N 52°28' E 004°40'0 0.0
2015-Aug-23 17:32N 52°28' E 004°40'0 0.0
2015-Aug-23 16:28N 52°28' E 004°40'0 0.0
2015-Aug-23 15:33N 52°28' E 004°40'0 0.0
2015-Aug-23 14:33N 52°28' E 004°40'0 0.0
2015-Aug-23 13:33N 52°28' E 004°40'0 0.0
2015-Aug-23 12:32N 52°28' E 004°40'0 0.0
2015-Aug-23 11:29N 52°28' E 004°40'0 0.0
2015-Aug-23 10:32N 52°28' E 004°40'0 0.0
2015-Aug-23 09:25N 52°28' E 004°40'0 0.0
2015-Aug-23 08:31N 52°28' E 004°40'0 0.0
2015-Aug-23 07:33N 52°28' E 004°40'0 0.0
2015-Aug-23 06:33N 52°28' E 004°40'0 0.0
2015-Aug-23 05:32N 52°28' E 004°40'0 0.0
2015-Aug-23 04:29N 52°28' E 004°40'0 0.0
2015-Aug-23 03:31N 52°28' E 004°40'0 0.0
2015-Aug-23 02:31N 52°28' E 004°40'0 0.0
2015-Aug-23 01:31N 52°28' E 004°40'0 0.0
2015-Aug-23 00:33N 52°28' E 004°40'0 0.0
2015-Aug-22 23:33N 52°28' E 004°40'0 0.0
2015-Aug-22 22:23N 52°28' E 004°40'0 0.0
2015-Aug-22 21:32N 52°28' E 004°40'0 0.0
2015-Aug-22 20:31N 52°28' E 004°40'0 0.0
2015-Aug-22 19:31N 52°28' E 004°40'0 0.0
2015-Aug-22 18:31N 52°28' E 004°40'0 0.0
2015-Aug-22 17:33N 52°28' E 004°40'0 0.0
2015-Aug-22 16:33N 52°28' E 004°40'0 0.0
2015-Aug-22 15:32N 52°28' E 004°40'0 0.0
2015-Aug-22 14:32N 52°28' E 004°40'0 0.0
2015-Aug-22 13:32N 52°28' E 004°40'2 2.0
2015-Aug-22 12:34N 52°28' E 004°37'4 4.4
2015-Aug-22 11:33N 52°28' E 004°30'9 9.2
2015-Aug-22 10:33N 52°29' E 004°15'10 9.3
2015-Aug-22 09:31N 52°27' E 003°59'11 9.3
2015-Aug-22 08:19N 52°22' E 003°43'17 9.7
2015-Aug-22 06:32N 52°13' E 003°19'47 9.1
2015-Aug-22 01:25N 51°38' E 002°28'7 7.6
2015-Aug-22 00:33N 51°33' E 002°21'  
Track history (hours):
 
Tides and Currents Weather Stations Pressure Air Temp Water Temp Dewpoint Dewpoint Depression Visibility Wind Speed Wind Dir Waves Ship Positions

Flinterbirka

Last reported at 2015-Aug-31 23:33 UTC. Time now 2015-Aug-31 23:49 UTC.
Position N 51°30' W 002°43'.

Length 83 m; draft 5.6 m.

Type: Ship. MMSI: 246525000.

Date/timePositionNaut miles runAvg speedWind from/ knotsBaromVisibWave heightAir tempDewpointWater temp
2015-Aug-31 23:33N 51°30' W 002°43'0 0.0
2015-Aug-31 22:33N 51°30' W 002°43'0 0.0
2015-Aug-31 21:33N 51°30' W 002°43'0 0.0
2015-Aug-31 20:32N 51°30' W 002°43'0 0.0
2015-Aug-31 19:32N 51°30' W 002°43'0 0.0
2015-Aug-31 18:31N 51°30' W 002°43'0 0.0
2015-Aug-31 17:31N 51°30' W 002°43'0 0.0
2015-Aug-31 16:33N 51°30' W 002°43'0 0.0
2015-Aug-31 15:33N 51°30' W 002°43'0 0.0
2015-Aug-31 14:33N 51°30' W 002°43'0 0.0
2015-Aug-31 13:32N 51°30' W 002°43'0 0.0
2015-Aug-31 12:32N 51°30' W 002°43'0 0.0
2015-Aug-31 11:31N 51°30' W 002°43'0 0.0
2015-Aug-31 10:31N 51°30' W 002°43'0 0.0
2015-Aug-31 09:33N 51°30' W 002°43'0 0.0
2015-Aug-31 08:33N 51°30' W 002°43'0 0.0
2015-Aug-31 07:33N 51°30' W 002°43'0 0.0
2015-Aug-31 06:32N 51°30' W 002°43'0 0.0
2015-Aug-31 05:32N 51°30' W 002°43'0 0.0
2015-Aug-31 04:31N 51°30' W 002°43'0 0.0
2015-Aug-31 03:31N 51°30' W 002°43'0 0.0
2015-Aug-31 02:33N 51°30' W 002°43'0 0.0
2015-Aug-31 01:33N 51°30' W 002°43'0 0.0
2015-Aug-31 00:33N 51°30' W 002°43'0 0.0
2015-Aug-30 23:32N 51°30' W 002°43'0 0.0
2015-Aug-30 22:32N 51°30' W 002°43'0 0.0
2015-Aug-30 21:31N 51°30' W 002°43'0 0.0
2015-Aug-30 20:32N 51°30' W 002°43'0 0.0
2015-Aug-30 19:33N 51°30' W 002°43'0 0.5
2015-Aug-30 18:33N 51°30' W 002°44'10 9.3
2015-Aug-30 17:30N 51°27' W 002°59'101 6.3
2015-Aug-30 01:31N 50°39' W 005°21'8 8.2
2015-Aug-30 00:33N 50°34' W 005°30'8 7.6
2015-Aug-29 23:29N 50°28' W 005°39'226 7.6
2015-Aug-28 17:33N 50°35' E 000°17'10 9.8
2015-Aug-28 16:33N 50°38' E 000°32'1010.4
2015-Aug-28 15:33N 50°43' E 000°46'22 9.9
2015-Aug-28 13:20N 50°57' E 001°13'7 8.4
2015-Aug-28 12:33N 51°01' E 001°21'7 7.4
2015-Aug-28 11:33N 51°06' E 001°30'7 6.9
2015-Aug-28 10:34N 51°10' E 001°39'8 7.9
2015-Aug-28 09:34N 51°16' E 001°48'10 9.7
2015-Aug-28 08:33N 51°24' E 001°57'1111.2
2015-Aug-28 07:33N 51°33' E 002°08'91 9.1
2015-Aug-27 21:33N 52°31' E 004°01'9 8.7
2015-Aug-27 20:34N 52°31' E 004°15'9 8.5
2015-Aug-27 19:33N 52°29' E 004°29'5 4.6
2015-Aug-27 18:33N 52°28' E 004°36'8 7.6
2015-Aug-27 17:33N 52°25' E 004°48'1 1.2
2015-Aug-27 16:33N 52°25' E 004°49'0 0.0
2015-Aug-27 15:33N 52°25' E 004°49'0 0.0
2015-Aug-27 14:33N 52°25' E 004°49'0 0.0
2015-Aug-27 13:29N 52°25' E 004°49'0 0.0
2015-Aug-27 12:29N 52°25' E 004°49'0 0.0
2015-Aug-27 11:31N 52°25' E 004°49'0 0.0
2015-Aug-27 10:31N 52°25' E 004°49'0 0.0
2015-Aug-27 09:33N 52°25' E 004°49'0 0.0
2015-Aug-27 08:33N 52°25' E 004°49'0 0.0
2015-Aug-27 07:32N 52°25' E 004°49'0 0.0
2015-Aug-27 06:32N 52°25' E 004°49'0 0.0
2015-Aug-27 05:32N 52°25' E 004°49'0 0.0
2015-Aug-27 04:31N 52°25' E 004°49'0 0.0
2015-Aug-27 03:31N 52°25' E 004°49'1 0.7
2015-Aug-27 02:34N 52°25' E 004°49'6 5.9
2015-Aug-27 01:32N 52°28' E 004°40'0 0.0
2015-Aug-27 00:32N 52°28' E 004°40'0 0.0
2015-Aug-26 23:31N 52°28' E 004°40'0 0.0
2015-Aug-26 22:31N 52°28' E 004°40'0 0.0
2015-Aug-26 21:30N 52°28' E 004°40'0 0.0
2015-Aug-26 20:33N 52°28' E 004°40'0 0.0
2015-Aug-26 19:32N 52°28' E 004°40'0 0.0
2015-Aug-26 18:32N 52°28' E 004°40'0 0.0
2015-Aug-26 17:32N 52°28' E 004°40'0 0.0
2015-Aug-26 16:31N 52°28' E 004°40'0 0.0
2015-Aug-26 15:31N 52°28' E 004°40'0 0.0
2015-Aug-26 14:33N 52°28' E 004°40'0 0.0
2015-Aug-26 13:33N 52°28' E 004°40'0 0.0
2015-Aug-26 12:32N 52°28' E 004°40'0 0.0
2015-Aug-26 11:32N 52°28' E 004°40'0 0.0
2015-Aug-26 10:32N 52°28' E 004°40'0 0.0
2015-Aug-26 09:31N 52°28' E 004°40'0 0.0
2015-Aug-26 08:31N 52°28' E 004°40'0 0.0
2015-Aug-26 07:30N 52°28' E 004°40'0 0.0
2015-Aug-26 06:33N 52°28' E 004°40'0 0.0
2015-Aug-26 05:32N 52°28' E 004°40'0 0.0
2015-Aug-26 04:32N 52°28' E 004°40'0 0.0
2015-Aug-26 03:32N 52°28' E 004°40'0 0.0
2015-Aug-26 02:31N 52°28' E 004°40'0 0.0
2015-Aug-26 01:31N 52°28' E 004°40'0 0.0
2015-Aug-26 00:33N 52°28' E 004°40'0 0.0
2015-Aug-25 23:33N 52°28' E 004°40'0 0.0
2015-Aug-25 22:32N 52°28' E 004°40'0 0.0
2015-Aug-25 21:29N 52°28' E 004°40'0 0.0
2015-Aug-25 20:31N 52°28' E 004°40'0 0.0
2015-Aug-25 19:31N 52°28' E 004°40'0 0.0
2015-Aug-25 18:31N 52°28' E 004°40'0 0.0
2015-Aug-25 17:33N 52°28' E 004°40'0 0.0
2015-Aug-25 16:33N 52°28' E 004°40'0 0.0
2015-Aug-25 15:32N 52°28' E 004°40'0 0.0
2015-Aug-25 14:32N 52°28' E 004°40'0 0.0
2015-Aug-25 13:31N 52°28' E 004°40'0 0.0
2015-Aug-25 12:28N 52°28' E 004°40'0 0.0
2015-Aug-25 11:31N 52°28' E 004°40'0 0.0
2015-Aug-25 10:33N 52°28' E 004°40'0 0.0
2015-Aug-25 09:33N 52°28' E 004°40'0 0.0
2015-Aug-25 08:32N 52°28' E 004°40'0 0.0
2015-Aug-25 07:32N 52°28' E 004°40'0 0.0
2015-Aug-25 06:31N 52°28' E 004°40'0 0.0
2015-Aug-25 05:31N 52°28' E 004°40'0 0.0
2015-Aug-25 04:31N 52°28' E 004°40'0 0.0
2015-Aug-25 03:33N 52°28' E 004°40'0 0.0
2015-Aug-25 02:33N 52°28' E 004°40'0 0.0
2015-Aug-25 01:32N 52°28' E 004°40'0 0.0
2015-Aug-25 00:32N 52°28' E 004°40'0 0.0
2015-Aug-24 23:31N 52°28' E 004°40'0 0.0
2015-Aug-24 22:31N 52°28' E 004°40'0 0.0
2015-Aug-24 21:34N 52°28' E 004°40'0 0.0
2015-Aug-24 20:33N 52°28' E 004°40'0 0.0
2015-Aug-24 19:33N 52°28' E 004°40'0 0.0
2015-Aug-24 18:32N 52°28' E 004°40'0 0.0
2015-Aug-24 17:32N 52°28' E 004°40'0 0.0
2015-Aug-24 16:31N 52°28' E 004°40'0 0.0
2015-Aug-24 15:31N 52°28' E 004°40'0 0.0
2015-Aug-24 14:34N 52°28' E 004°40'0 0.0
2015-Aug-24 13:33N 52°28' E 004°40'0 0.0
2015-Aug-24 12:33N 52°28' E 004°40'0 0.0
2015-Aug-24 11:32N 52°28' E 004°40'0 0.0
2015-Aug-24 10:29N 52°28' E 004°40'0 0.0
2015-Aug-24 09:31N 52°28' E 004°40'0 0.0
2015-Aug-24 08:28N 52°28' E 004°40'0 0.0
2015-Aug-24 07:33N 52°28' E 004°40'0 0.0
2015-Aug-24 06:33N 52°28' E 004°40'0 0.1
2015-Aug-24 05:31N 52°28' E 004°40'0 0.0
2015-Aug-24 04:33N 52°28' E 004°40'0 0.0
2015-Aug-24 03:33N 52°28' E 004°40'0 0.0
2015-Aug-24 02:32N 52°28' E 004°40'0 0.0
2015-Aug-24 01:32N 52°28' E 004°40'0 0.0
2015-Aug-24 00:32N 52°28' E 004°40'0 0.0
2015-Aug-23 23:31N 52°28' E 004°40'0 0.0
2015-Aug-23 22:31N 52°28' E 004°40'0 0.0
2015-Aug-23 21:33N 52°28' E 004°40'0 0.0
2015-Aug-23 20:33N 52°28' E 004°40'0 0.0
2015-Aug-23 19:32N 52°28' E 004°40'0 0.0
2015-Aug-23 18:32N 52°28' E 004°40'0 0.0
2015-Aug-23 17:32N 52°28' E 004°40'0 0.0
2015-Aug-23 16:28N 52°28' E 004°40'0 0.0
2015-Aug-23 15:33N 52°28' E 004°40'0 0.0
2015-Aug-23 14:33N 52°28' E 004°40'0 0.0
2015-Aug-23 13:33N 52°28' E 004°40'0 0.0
2015-Aug-23 12:32N 52°28' E 004°40'0 0.0
2015-Aug-23 11:29N 52°28' E 004°40'0 0.0
2015-Aug-23 10:32N 52°28' E 004°40'0 0.0
2015-Aug-23 09:25N 52°28' E 004°40'0 0.0
2015-Aug-23 08:31N 52°28' E 004°40'0 0.0
2015-Aug-23 07:33N 52°28' E 004°40'0 0.0
2015-Aug-23 06:33N 52°28' E 004°40'0 0.0
2015-Aug-23 05:32N 52°28' E 004°40'0 0.0
2015-Aug-23 04:29N 52°28' E 004°40'0 0.0
2015-Aug-23 03:31N 52°28' E 004°40'0 0.0
2015-Aug-23 02:31N 52°28' E 004°40'0 0.0
2015-Aug-23 01:31N 52°28' E 004°40'0 0.0
2015-Aug-23 00:33N 52°28' E 004°40'0 0.0
2015-Aug-22 23:33N 52°28' E 004°40'0 0.0
2015-Aug-22 22:23N 52°28' E 004°40'0 0.0
2015-Aug-22 21:32N 52°28' E 004°40'0 0.0
2015-Aug-22 20:31N 52°28' E 004°40'0 0.0
2015-Aug-22 19:31N 52°28' E 004°40'0 0.0
2015-Aug-22 18:31N 52°28' E 004°40'0 0.0
2015-Aug-22 17:33N 52°28' E 004°40'0 0.0
2015-Aug-22 16:33N 52°28' E 004°40'0 0.0
2015-Aug-22 15:32N 52°28' E 004°40'0 0.0
2015-Aug-22 14:32N 52°28' E 004°40'0 0.0
2015-Aug-22 13:32N 52°28' E 004°40'2 2.0
2015-Aug-22 12:34N 52°28' E 004°37'4 4.4
2015-Aug-22 11:33N 52°28' E 004°30'9 9.2
2015-Aug-22 10:33N 52°29' E 004°15'10 9.3
2015-Aug-22 09:31N 52°27' E 003°59'11 9.3
2015-Aug-22 08:19N 52°22' E 003°43'17 9.7
2015-Aug-22 06:32N 52°13' E 003°19'47 9.1
2015-Aug-22 01:25N 51°38' E 002°28'7 7.6
2015-Aug-22 00:33N 51°33' E 002°21'  

Dump ship's entire track history